﻿<?xml version="1.0" encoding="UTF-8" standalone="no" ?>
<gpx xmlns="http://www.topografix.com/GPX/1/1" creator="CompeGPS" version="1.1" xmlns:xsi="http://www.w3.org/2001/XMLSchema-instance" xsi:schemaLocation="http://www.topografix.com/GPX/1/1 http://www.topografix.com/GPX/1/1/gpx.xsd http://www.garmin.com/xmlschemas/GpxExtensions/v3 http://www.garmin.com/xmlschemas/GpxExtensionsv3.xsd http://www.garmin.com/xmlschemas/TrackPointExtension/v1 http://www.garmin.com/xmlschemas/TrackPointExtensionv1.xsd" xmlns:gpxtpx="http://www.garmin.com/xmlschemas/TrackPointExtension/v1">
  <metadata>
    <link href="http://www.compegps.com">
      <text>CompeGPS TEAM, SL</text>
    </link>
    <time>2015-12-31T12:45:42Z</time>
    <bounds maxlat="45.086893" maxlon="6.531383" minlat="45.058978" minlon="6.509727"/>
  </metadata>
  <trk>
    <name>Rando_168</name>
    <trkseg>
      <trkpt lat="45.059031" lon="6.526152">
        <ele>2027.9</ele>
        <time>2014-09-24T08:44:10Z</time>
      </trkpt>
      <trkpt lat="45.059546" lon="6.525672">
        <ele>2034.4</ele>
        <time>2014-09-24T08:44:39Z</time>
      </trkpt>
      <trkpt lat="45.059818" lon="6.525356">
        <ele>2037.9</ele>
        <time>2014-09-24T08:44:43Z</time>
      </trkpt>
      <trkpt lat="45.060436" lon="6.525037">
        <ele>2050.5</ele>
        <time>2014-09-24T08:44:51Z</time>
      </trkpt>
      <trkpt lat="45.061352" lon="6.524251">
        <ele>2069.7</ele>
        <time>2014-09-24T08:45:44Z</time>
      </trkpt>
      <trkpt lat="45.061714" lon="6.523851">
        <ele>2072.3</ele>
        <time>2014-09-24T08:45:53Z</time>
      </trkpt>
      <trkpt lat="45.062334" lon="6.523470">
        <ele>2085.4</ele>
        <time>2014-09-24T08:46:15Z</time>
      </trkpt>
      <trkpt lat="45.062871" lon="6.522992">
        <ele>2090.6</ele>
        <time>2014-09-24T08:46:39Z</time>
      </trkpt>
      <trkpt lat="45.063137" lon="6.522829">
        <ele>2095.2</ele>
        <time>2014-09-24T08:46:51Z</time>
      </trkpt>
      <trkpt lat="45.063272" lon="6.522686">
        <ele>2095.2</ele>
        <time>2014-09-24T08:47:15Z</time>
      </trkpt>
      <trkpt lat="45.063492" lon="6.522581">
        <ele>2098.7</ele>
        <time>2014-09-24T08:47:39Z</time>
      </trkpt>
      <trkpt lat="45.063614" lon="6.522438">
        <ele>2097.6</ele>
        <time>2014-09-24T08:48:07Z</time>
      </trkpt>
      <trkpt lat="45.063695" lon="6.522324">
        <ele>2096.1</ele>
        <time>2014-09-24T08:48:31Z</time>
      </trkpt>
      <trkpt lat="45.063821" lon="6.522188">
        <ele>2095.3</ele>
        <time>2014-09-24T08:48:55Z</time>
      </trkpt>
      <trkpt lat="45.063905" lon="6.521877">
        <ele>2086.5</ele>
        <time>2014-09-24T08:50:23Z</time>
      </trkpt>
      <trkpt lat="45.064040" lon="6.521748">
        <ele>2085.0</ele>
        <time>2014-09-24T08:51:27Z</time>
      </trkpt>
      <trkpt lat="45.064200" lon="6.521629">
        <ele>2085.3</ele>
        <time>2014-09-24T08:51:55Z</time>
      </trkpt>
      <trkpt lat="45.064248" lon="6.521378">
        <ele>2082.7</ele>
        <time>2014-09-24T08:52:27Z</time>
      </trkpt>
      <trkpt lat="45.064345" lon="6.521285">
        <ele>2083.9</ele>
        <time>2014-09-24T08:52:43Z</time>
      </trkpt>
      <trkpt lat="45.064555" lon="6.521227">
        <ele>2088.5</ele>
        <time>2014-09-24T08:53:07Z</time>
      </trkpt>
      <trkpt lat="45.064660" lon="6.521179">
        <ele>2090.3</ele>
        <time>2014-09-24T08:53:19Z</time>
      </trkpt>
      <trkpt lat="45.064829" lon="6.521034">
        <ele>2092.5</ele>
        <time>2014-09-24T08:53:43Z</time>
      </trkpt>
      <trkpt lat="45.064976" lon="6.520849">
        <ele>2093.6</ele>
        <time>2014-09-24T08:54:07Z</time>
      </trkpt>
      <trkpt lat="45.065175" lon="6.520711">
        <ele>2096.0</ele>
        <time>2014-09-24T08:54:31Z</time>
      </trkpt>
      <trkpt lat="45.065326" lon="6.520536">
        <ele>2097.0</ele>
        <time>2014-09-24T08:54:55Z</time>
      </trkpt>
      <trkpt lat="45.065445" lon="6.520478">
        <ele>2098.7</ele>
        <time>2014-09-24T08:55:07Z</time>
      </trkpt>
      <trkpt lat="45.065561" lon="6.520249">
        <ele>2098.5</ele>
        <time>2014-09-24T08:55:31Z</time>
      </trkpt>
      <trkpt lat="45.065715" lon="6.520016">
        <ele>2098.8</ele>
        <time>2014-09-24T08:55:55Z</time>
      </trkpt>
      <trkpt lat="45.065914" lon="6.519821">
        <ele>2101.2</ele>
        <time>2014-09-24T08:56:19Z</time>
      </trkpt>
      <trkpt lat="45.066117" lon="6.519655">
        <ele>2104.5</ele>
        <time>2014-09-24T08:56:43Z</time>
      </trkpt>
      <trkpt lat="45.066205" lon="6.519559">
        <ele>2106.2</ele>
        <time>2014-09-24T08:56:55Z</time>
      </trkpt>
      <trkpt lat="45.066349" lon="6.519298">
        <ele>2109.3</ele>
        <time>2014-09-24T08:57:19Z</time>
      </trkpt>
      <trkpt lat="45.066501" lon="6.519085">
        <ele>2112.5</ele>
        <time>2014-09-24T08:57:43Z</time>
      </trkpt>
      <trkpt lat="45.066812" lon="6.518942">
        <ele>2119.9</ele>
        <time>2014-09-24T08:59:11Z</time>
      </trkpt>
      <trkpt lat="45.067004" lon="6.518777">
        <ele>2124.1</ele>
        <time>2014-09-24T08:59:35Z</time>
      </trkpt>
      <trkpt lat="45.067158" lon="6.518625">
        <ele>2127.7</ele>
        <time>2014-09-24T08:59:58Z</time>
      </trkpt>
      <trkpt lat="45.067245" lon="6.518592">
        <ele>2130.2</ele>
        <time>2014-09-24T09:00:08Z</time>
      </trkpt>
      <trkpt lat="45.067392" lon="6.518467">
        <ele>2134.1</ele>
        <time>2014-09-24T09:00:29Z</time>
      </trkpt>
      <trkpt lat="45.067553" lon="6.518380">
        <ele>2138.4</ele>
        <time>2014-09-24T09:00:53Z</time>
      </trkpt>
      <trkpt lat="45.067710" lon="6.518278">
        <ele>2140.5</ele>
        <time>2014-09-24T09:01:15Z</time>
      </trkpt>
      <trkpt lat="45.067793" lon="6.518245">
        <ele>2141.9</ele>
        <time>2014-09-24T09:01:27Z</time>
      </trkpt>
      <trkpt lat="45.067967" lon="6.518190">
        <ele>2145.2</ele>
        <time>2014-09-24T09:01:49Z</time>
      </trkpt>
      <trkpt lat="45.068127" lon="6.518188">
        <ele>2148.8</ele>
        <time>2014-09-24T09:02:15Z</time>
      </trkpt>
      <trkpt lat="45.068203" lon="6.518153">
        <ele>2150.2</ele>
        <time>2014-09-24T09:02:27Z</time>
      </trkpt>
      <trkpt lat="45.068363" lon="6.518063">
        <ele>2152.8</ele>
        <time>2014-09-24T09:02:51Z</time>
      </trkpt>
      <trkpt lat="45.068515" lon="6.517958">
        <ele>2155.3</ele>
        <time>2014-09-24T09:03:10Z</time>
      </trkpt>
      <trkpt lat="45.068693" lon="6.517960">
        <ele>2160.0</ele>
        <time>2014-09-24T09:03:26Z</time>
      </trkpt>
      <trkpt lat="45.068935" lon="6.517818">
        <ele>2164.9</ele>
        <time>2014-09-24T09:03:52Z</time>
      </trkpt>
      <trkpt lat="45.068985" lon="6.517718">
        <ele>2165.4</ele>
        <time>2014-09-24T09:04:00Z</time>
      </trkpt>
      <trkpt lat="45.069325" lon="6.517670">
        <ele>2175.6</ele>
        <time>2014-09-24T09:04:46Z</time>
      </trkpt>
      <trkpt lat="45.069370" lon="6.517565">
        <ele>2176.4</ele>
        <time>2014-09-24T09:04:57Z</time>
      </trkpt>
      <trkpt lat="45.069515" lon="6.517430">
        <ele>2178.8</ele>
        <time>2014-09-24T09:05:21Z</time>
      </trkpt>
      <trkpt lat="45.069603" lon="6.517222">
        <ele>2176.4</ele>
        <time>2014-09-24T09:05:42Z</time>
      </trkpt>
      <trkpt lat="45.069762" lon="6.517117">
        <ele>2178.8</ele>
        <time>2014-09-24T09:06:05Z</time>
      </trkpt>
      <trkpt lat="45.069908" lon="6.516993">
        <ele>2180.2</ele>
        <time>2014-09-24T09:06:31Z</time>
      </trkpt>
      <trkpt lat="45.070058" lon="6.516892">
        <ele>2181.6</ele>
        <time>2014-09-24T09:06:56Z</time>
      </trkpt>
      <trkpt lat="45.070140" lon="6.516845">
        <ele>2182.1</ele>
        <time>2014-09-24T09:07:03Z</time>
      </trkpt>
      <trkpt lat="45.070305" lon="6.516908">
        <ele>2188.1</ele>
        <time>2014-09-24T09:07:28Z</time>
      </trkpt>
      <trkpt lat="45.070430" lon="6.516787">
        <ele>2187.8</ele>
        <time>2014-09-24T09:07:53Z</time>
      </trkpt>
      <trkpt lat="45.070535" lon="6.516777">
        <ele>2190.0</ele>
        <time>2014-09-24T09:08:05Z</time>
      </trkpt>
      <trkpt lat="45.070667" lon="6.516902">
        <ele>2197.2</ele>
        <time>2014-09-24T09:09:00Z</time>
      </trkpt>
      <trkpt lat="45.070828" lon="6.516807">
        <ele>2198.0</ele>
        <time>2014-09-24T09:09:35Z</time>
      </trkpt>
      <trkpt lat="45.070918" lon="6.516792">
        <ele>2199.6</ele>
        <time>2014-09-24T09:10:01Z</time>
      </trkpt>
      <trkpt lat="45.071070" lon="6.516875">
        <ele>2206.1</ele>
        <time>2014-09-24T09:10:30Z</time>
      </trkpt>
      <trkpt lat="45.071155" lon="6.516842">
        <ele>2206.7</ele>
        <time>2014-09-24T09:10:42Z</time>
      </trkpt>
      <trkpt lat="45.071305" lon="6.516742">
        <ele>2206.5</ele>
        <time>2014-09-24T09:11:00Z</time>
      </trkpt>
      <trkpt lat="45.071475" lon="6.516690">
        <ele>2208.3</ele>
        <time>2014-09-24T09:11:32Z</time>
      </trkpt>
      <trkpt lat="45.071547" lon="6.516623">
        <ele>2207.5</ele>
        <time>2014-09-24T09:11:41Z</time>
      </trkpt>
      <trkpt lat="45.071715" lon="6.516615">
        <ele>2211.0</ele>
        <time>2014-09-24T09:12:00Z</time>
      </trkpt>
      <trkpt lat="45.071790" lon="6.516547">
        <ele>2209.8</ele>
        <time>2014-09-24T09:12:11Z</time>
      </trkpt>
      <trkpt lat="45.071858" lon="6.516327">
        <ele>2204.5</ele>
        <time>2014-09-24T09:12:31Z</time>
      </trkpt>
      <trkpt lat="45.071943" lon="6.516307">
        <ele>2205.8</ele>
        <time>2014-09-24T09:12:42Z</time>
      </trkpt>
      <trkpt lat="45.072097" lon="6.516397">
        <ele>2212.1</ele>
        <time>2014-09-24T09:13:00Z</time>
      </trkpt>
      <trkpt lat="45.072440" lon="6.516312">
        <ele>2218.4</ele>
        <time>2014-09-24T09:13:38Z</time>
      </trkpt>
      <trkpt lat="45.072603" lon="6.516257">
        <ele>2221.8</ele>
        <time>2014-09-24T09:13:57Z</time>
      </trkpt>
      <trkpt lat="45.072683" lon="6.516210">
        <ele>2223.2</ele>
        <time>2014-09-24T09:14:06Z</time>
      </trkpt>
      <trkpt lat="45.072848" lon="6.516163">
        <ele>2226.7</ele>
        <time>2014-09-24T09:14:23Z</time>
      </trkpt>
      <trkpt lat="45.073022" lon="6.516132">
        <ele>2230.9</ele>
        <time>2014-09-24T09:14:43Z</time>
      </trkpt>
      <trkpt lat="45.073190" lon="6.516160">
        <ele>2235.8</ele>
        <time>2014-09-24T09:15:08Z</time>
      </trkpt>
      <trkpt lat="45.073360" lon="6.516140">
        <ele>2239.7</ele>
        <time>2014-09-24T09:15:42Z</time>
      </trkpt>
      <trkpt lat="45.073530" lon="6.516103">
        <ele>2242.5</ele>
        <time>2014-09-24T09:16:09Z</time>
      </trkpt>
      <trkpt lat="45.073617" lon="6.516097">
        <ele>2244.3</ele>
        <time>2014-09-24T09:16:20Z</time>
      </trkpt>
      <trkpt lat="45.073763" lon="6.516217">
        <ele>2250.3</ele>
        <time>2014-09-24T09:16:58Z</time>
      </trkpt>
      <trkpt lat="45.073852" lon="6.516195">
        <ele>2251.7</ele>
        <time>2014-09-24T09:17:16Z</time>
      </trkpt>
      <trkpt lat="45.074008" lon="6.516307">
        <ele>2258.3</ele>
        <time>2014-09-24T09:17:48Z</time>
      </trkpt>
      <trkpt lat="45.074097" lon="6.516323">
        <ele>2260.8</ele>
        <time>2014-09-24T09:18:06Z</time>
      </trkpt>
      <trkpt lat="45.074200" lon="6.516143">
        <ele>2257.5</ele>
        <time>2014-09-24T09:18:38Z</time>
      </trkpt>
      <trkpt lat="45.074372" lon="6.516098">
        <ele>2259.0</ele>
        <time>2014-09-24T09:20:55Z</time>
      </trkpt>
      <trkpt lat="45.074518" lon="6.516027">
        <ele>2259.2</ele>
        <time>2014-09-24T09:21:22Z</time>
      </trkpt>
      <trkpt lat="45.074602" lon="6.516057">
        <ele>2261.3</ele>
        <time>2014-09-24T09:21:36Z</time>
      </trkpt>
      <trkpt lat="45.074698" lon="6.516247">
        <ele>2268.7</ele>
        <time>2014-09-24T09:22:01Z</time>
      </trkpt>
      <trkpt lat="45.074700" lon="6.516373">
        <ele>2272.9</ele>
        <time>2014-09-24T09:22:18Z</time>
      </trkpt>
      <trkpt lat="45.074813" lon="6.516505">
        <ele>2279.1</ele>
        <time>2014-09-24T09:22:53Z</time>
      </trkpt>
      <trkpt lat="45.074850" lon="6.516708">
        <ele>2286.6</ele>
        <time>2014-09-24T09:23:56Z</time>
      </trkpt>
      <trkpt lat="45.074827" lon="6.516950">
        <ele>2294.1</ele>
        <time>2014-09-24T09:24:27Z</time>
      </trkpt>
      <trkpt lat="45.074833" lon="6.517073">
        <ele>2298.6</ele>
        <time>2014-09-24T09:24:42Z</time>
      </trkpt>
      <trkpt lat="45.075003" lon="6.517135">
        <ele>2304.9</ele>
        <time>2014-09-24T09:25:22Z</time>
      </trkpt>
      <trkpt lat="45.075052" lon="6.517240">
        <ele>2309.3</ele>
        <time>2014-09-24T09:25:39Z</time>
      </trkpt>
      <trkpt lat="45.075027" lon="6.517488">
        <ele>2318.0</ele>
        <time>2014-09-24T09:26:03Z</time>
      </trkpt>
      <trkpt lat="45.075077" lon="6.517720">
        <ele>2322.9</ele>
        <time>2014-09-24T09:26:35Z</time>
      </trkpt>
      <trkpt lat="45.075160" lon="6.517935">
        <ele>2327.9</ele>
        <time>2014-09-24T09:27:12Z</time>
      </trkpt>
      <trkpt lat="45.075295" lon="6.518072">
        <ele>2332.9</ele>
        <time>2014-09-24T09:27:45Z</time>
      </trkpt>
      <trkpt lat="45.075387" lon="6.518282">
        <ele>2338.4</ele>
        <time>2014-09-24T09:28:14Z</time>
      </trkpt>
      <trkpt lat="45.075675" lon="6.518528">
        <ele>2348.7</ele>
        <time>2014-09-24T09:29:13Z</time>
      </trkpt>
      <trkpt lat="45.075842" lon="6.518558">
        <ele>2352.5</ele>
        <time>2014-09-24T09:29:57Z</time>
      </trkpt>
      <trkpt lat="45.075923" lon="6.518607">
        <ele>2355.5</ele>
        <time>2014-09-24T09:30:08Z</time>
      </trkpt>
      <trkpt lat="45.076017" lon="6.518817">
        <ele>2361.3</ele>
        <time>2014-09-24T09:30:35Z</time>
      </trkpt>
      <trkpt lat="45.076102" lon="6.518830">
        <ele>2363.4</ele>
        <time>2014-09-24T09:31:19Z</time>
      </trkpt>
      <trkpt lat="45.076188" lon="6.518627">
        <ele>2362.1</ele>
        <time>2014-09-24T09:31:47Z</time>
      </trkpt>
      <trkpt lat="45.076275" lon="6.518602">
        <ele>2363.9</ele>
        <time>2014-09-24T09:32:01Z</time>
      </trkpt>
      <trkpt lat="45.076442" lon="6.518603">
        <ele>2368.0</ele>
        <time>2014-09-24T09:32:25Z</time>
      </trkpt>
      <trkpt lat="45.076600" lon="6.518698">
        <ele>2373.0</ele>
        <time>2014-09-24T09:32:48Z</time>
      </trkpt>
      <trkpt lat="45.076760" lon="6.518723">
        <ele>2377.4</ele>
        <time>2014-09-24T09:33:05Z</time>
      </trkpt>
      <trkpt lat="45.076847" lon="6.518698">
        <ele>2379.6</ele>
        <time>2014-09-24T09:33:13Z</time>
      </trkpt>
      <trkpt lat="45.077162" lon="6.518818">
        <ele>2389.1</ele>
        <time>2014-09-24T09:34:06Z</time>
      </trkpt>
      <trkpt lat="45.077257" lon="6.518988">
        <ele>2392.8</ele>
        <time>2014-09-24T09:34:30Z</time>
      </trkpt>
      <trkpt lat="45.077287" lon="6.519230">
        <ele>2394.6</ele>
        <time>2014-09-24T09:34:59Z</time>
      </trkpt>
      <trkpt lat="45.077422" lon="6.519365">
        <ele>2397.2</ele>
        <time>2014-09-24T09:35:24Z</time>
      </trkpt>
      <trkpt lat="45.077455" lon="6.519483">
        <ele>2397.3</ele>
        <time>2014-09-24T09:39:50Z</time>
      </trkpt>
      <trkpt lat="45.077588" lon="6.519640">
        <ele>2397.8</ele>
        <time>2014-09-24T09:40:14Z</time>
      </trkpt>
      <trkpt lat="45.077653" lon="6.519855">
        <ele>2396.8</ele>
        <time>2014-09-24T09:41:03Z</time>
      </trkpt>
      <trkpt lat="45.077923" lon="6.520147">
        <ele>2396.8</ele>
        <time>2014-09-24T09:41:54Z</time>
      </trkpt>
      <trkpt lat="45.078085" lon="6.520155">
        <ele>2397.5</ele>
        <time>2014-09-24T09:43:05Z</time>
      </trkpt>
      <trkpt lat="45.078295" lon="6.520448">
        <ele>2396.2</ele>
        <time>2014-09-24T09:49:41Z</time>
      </trkpt>
      <trkpt lat="45.078452" lon="6.520510">
        <ele>2394.6</ele>
        <time>2014-09-24T09:49:55Z</time>
      </trkpt>
      <trkpt lat="45.078775" lon="6.520652">
        <ele>2390.8</ele>
        <time>2014-09-24T09:50:23Z</time>
      </trkpt>
      <trkpt lat="45.078942" lon="6.520625">
        <ele>2389.5</ele>
        <time>2014-09-24T09:50:41Z</time>
      </trkpt>
      <trkpt lat="45.079255" lon="6.520442">
        <ele>2388.3</ele>
        <time>2014-09-24T09:51:27Z</time>
      </trkpt>
      <trkpt lat="45.079403" lon="6.520328">
        <ele>2389.2</ele>
        <time>2014-09-24T09:51:43Z</time>
      </trkpt>
      <trkpt lat="45.079737" lon="6.520215">
        <ele>2391.1</ele>
        <time>2014-09-24T09:52:20Z</time>
      </trkpt>
      <trkpt lat="45.079823" lon="6.520247">
        <ele>2391.3</ele>
        <time>2014-09-24T09:52:33Z</time>
      </trkpt>
      <trkpt lat="45.079987" lon="6.520202">
        <ele>2392.2</ele>
        <time>2014-09-24T09:53:09Z</time>
      </trkpt>
      <trkpt lat="45.080035" lon="6.520102">
        <ele>2392.8</ele>
        <time>2014-09-24T09:53:19Z</time>
      </trkpt>
      <trkpt lat="45.080180" lon="6.519975">
        <ele>2394.1</ele>
        <time>2014-09-24T09:53:36Z</time>
      </trkpt>
      <trkpt lat="45.080242" lon="6.519895">
        <ele>2394.9</ele>
        <time>2014-09-24T09:53:44Z</time>
      </trkpt>
      <trkpt lat="45.080400" lon="6.519812">
        <ele>2396.0</ele>
        <time>2014-09-24T09:54:00Z</time>
      </trkpt>
      <trkpt lat="45.080638" lon="6.519722">
        <ele>2397.0</ele>
        <time>2014-09-24T09:54:24Z</time>
      </trkpt>
      <trkpt lat="45.080797" lon="6.519638">
        <ele>2397.4</ele>
        <time>2014-09-24T09:54:41Z</time>
      </trkpt>
      <trkpt lat="45.080850" lon="6.519542">
        <ele>2397.4</ele>
        <time>2014-09-24T09:54:50Z</time>
      </trkpt>
      <trkpt lat="45.081173" lon="6.519483">
        <ele>2393.3</ele>
        <time>2014-09-24T09:55:35Z</time>
      </trkpt>
      <trkpt lat="45.081335" lon="6.519560">
        <ele>2391.6</ele>
        <time>2014-09-24T09:55:53Z</time>
      </trkpt>
      <trkpt lat="45.081423" lon="6.519570">
        <ele>2390.7</ele>
        <time>2014-09-24T09:56:01Z</time>
      </trkpt>
      <trkpt lat="45.081652" lon="6.519738">
        <ele>2389.6</ele>
        <time>2014-09-24T09:56:27Z</time>
      </trkpt>
      <trkpt lat="45.081757" lon="6.519912">
        <ele>2390.8</ele>
        <time>2014-09-24T09:57:07Z</time>
      </trkpt>
      <trkpt lat="45.081853" lon="6.520108">
        <ele>2393.0</ele>
        <time>2014-09-24T09:57:22Z</time>
      </trkpt>
      <trkpt lat="45.081890" lon="6.520215">
        <ele>2394.5</ele>
        <time>2014-09-24T09:57:30Z</time>
      </trkpt>
      <trkpt lat="45.081998" lon="6.520380">
        <ele>2397.2</ele>
        <time>2014-09-24T09:57:45Z</time>
      </trkpt>
      <trkpt lat="45.081963" lon="6.520490">
        <ele>2398.7</ele>
        <time>2014-09-24T09:57:53Z</time>
      </trkpt>
      <trkpt lat="45.081877" lon="6.520700">
        <ele>2401.5</ele>
        <time>2014-09-24T09:58:06Z</time>
      </trkpt>
      <trkpt lat="45.081897" lon="6.520817">
        <ele>2403.3</ele>
        <time>2014-09-24T09:58:15Z</time>
      </trkpt>
      <trkpt lat="45.082033" lon="6.520968">
        <ele>2406.5</ele>
        <time>2014-09-24T09:58:40Z</time>
      </trkpt>
      <trkpt lat="45.082060" lon="6.521082">
        <ele>2408.3</ele>
        <time>2014-09-24T09:58:53Z</time>
      </trkpt>
      <trkpt lat="45.082053" lon="6.521335">
        <ele>2411.8</ele>
        <time>2014-09-24T09:59:18Z</time>
      </trkpt>
      <trkpt lat="45.082042" lon="6.521458">
        <ele>2413.6</ele>
        <time>2014-09-24T09:59:29Z</time>
      </trkpt>
      <trkpt lat="45.082078" lon="6.521695">
        <ele>2416.7</ele>
        <time>2014-09-24T09:59:58Z</time>
      </trkpt>
      <trkpt lat="45.082113" lon="6.521842">
        <ele>2417.6</ele>
        <time>2014-09-24T10:00:48Z</time>
      </trkpt>
      <trkpt lat="45.082200" lon="6.522045">
        <ele>2418.7</ele>
        <time>2014-09-24T10:01:03Z</time>
      </trkpt>
      <trkpt lat="45.082183" lon="6.522168">
        <ele>2419.5</ele>
        <time>2014-09-24T10:01:14Z</time>
      </trkpt>
      <trkpt lat="45.082232" lon="6.522400">
        <ele>2420.6</ele>
        <time>2014-09-24T10:01:49Z</time>
      </trkpt>
      <trkpt lat="45.082153" lon="6.522555">
        <ele>2422.2</ele>
        <time>2014-09-24T10:02:13Z</time>
      </trkpt>
      <trkpt lat="45.082218" lon="6.522642">
        <ele>2422.2</ele>
        <time>2014-09-24T10:02:41Z</time>
      </trkpt>
      <trkpt lat="45.082127" lon="6.522850">
        <ele>2424.1</ele>
        <time>2014-09-24T10:03:00Z</time>
      </trkpt>
      <trkpt lat="45.082088" lon="6.522962">
        <ele>2424.9</ele>
        <time>2014-09-24T10:03:08Z</time>
      </trkpt>
      <trkpt lat="45.082090" lon="6.523203">
        <ele>2426.3</ele>
        <time>2014-09-24T10:03:41Z</time>
      </trkpt>
      <trkpt lat="45.082213" lon="6.523360">
        <ele>2426.7</ele>
        <time>2014-09-24T10:04:18Z</time>
      </trkpt>
      <trkpt lat="45.082330" lon="6.523533">
        <ele>2428.5</ele>
        <time>2014-09-24T10:04:44Z</time>
      </trkpt>
      <trkpt lat="45.082423" lon="6.523743">
        <ele>2431.0</ele>
        <time>2014-09-24T10:05:14Z</time>
      </trkpt>
      <trkpt lat="45.082502" lon="6.523802">
        <ele>2431.7</ele>
        <time>2014-09-24T10:05:27Z</time>
      </trkpt>
      <trkpt lat="45.082432" lon="6.524023">
        <ele>2435.1</ele>
        <time>2014-09-24T10:06:10Z</time>
      </trkpt>
      <trkpt lat="45.082458" lon="6.524143">
        <ele>2436.7</ele>
        <time>2014-09-24T10:06:20Z</time>
      </trkpt>
      <trkpt lat="45.082437" lon="6.524378">
        <ele>2441.1</ele>
        <time>2014-09-24T10:06:36Z</time>
      </trkpt>
      <trkpt lat="45.082435" lon="6.524500">
        <ele>2443.3</ele>
        <time>2014-09-24T10:06:45Z</time>
      </trkpt>
      <trkpt lat="45.082535" lon="6.524670">
        <ele>2446.5</ele>
        <time>2014-09-24T10:07:02Z</time>
      </trkpt>
      <trkpt lat="45.082583" lon="6.524903">
        <ele>2450.9</ele>
        <time>2014-09-24T10:07:28Z</time>
      </trkpt>
      <trkpt lat="45.082757" lon="6.524872">
        <ele>2450.3</ele>
        <time>2014-09-24T10:08:02Z</time>
      </trkpt>
      <trkpt lat="45.082750" lon="6.525080">
        <ele>2452.9</ele>
        <time>2014-09-24T10:08:28Z</time>
      </trkpt>
      <trkpt lat="45.082870" lon="6.525255">
        <ele>2453.0</ele>
        <time>2014-09-24T10:08:46Z</time>
      </trkpt>
      <trkpt lat="45.083027" lon="6.525415">
        <ele>2452.3</ele>
        <time>2014-09-24T10:09:25Z</time>
      </trkpt>
      <trkpt lat="45.083010" lon="6.525645">
        <ele>2452.5</ele>
        <time>2014-09-24T10:09:45Z</time>
      </trkpt>
      <trkpt lat="45.082980" lon="6.525755">
        <ele>2452.8</ele>
        <time>2014-09-24T10:09:57Z</time>
      </trkpt>
      <trkpt lat="45.083067" lon="6.525930">
        <ele>2452.1</ele>
        <time>2014-09-24T10:10:51Z</time>
      </trkpt>
      <trkpt lat="45.083127" lon="6.526158">
        <ele>2451.8</ele>
        <time>2014-09-24T10:11:10Z</time>
      </trkpt>
      <trkpt lat="45.083078" lon="6.526380">
        <ele>2452.8</ele>
        <time>2014-09-24T10:11:27Z</time>
      </trkpt>
      <trkpt lat="45.083067" lon="6.526497">
        <ele>2453.2</ele>
        <time>2014-09-24T10:11:38Z</time>
      </trkpt>
      <trkpt lat="45.083035" lon="6.526732">
        <ele>2453.7</ele>
        <time>2014-09-24T10:11:58Z</time>
      </trkpt>
      <trkpt lat="45.082985" lon="6.526818">
        <ele>2454.2</ele>
        <time>2014-09-24T10:12:05Z</time>
      </trkpt>
      <trkpt lat="45.082852" lon="6.526948">
        <ele>2455.9</ele>
        <time>2014-09-24T10:12:20Z</time>
      </trkpt>
      <trkpt lat="45.082713" lon="6.527139">
        <ele>2457.9</ele>
        <time>2014-09-24T10:12:37Z</time>
      </trkpt>
      <trkpt lat="45.082695" lon="6.527098">
        <ele>2458.2</ele>
        <time>2014-09-24T10:13:19Z</time>
      </trkpt>
      <trkpt lat="45.082695" lon="6.527222">
        <ele>2458.2</ele>
        <time>2014-09-24T10:13:34Z</time>
      </trkpt>
      <trkpt lat="45.082632" lon="6.527443">
        <ele>2459.3</ele>
        <time>2014-09-24T10:14:06Z</time>
      </trkpt>
      <trkpt lat="45.082675" lon="6.527547">
        <ele>2458.3</ele>
        <time>2014-09-24T10:14:31Z</time>
      </trkpt>
      <trkpt lat="45.082738" lon="6.527765">
        <ele>2456.1</ele>
        <time>2014-09-24T10:15:25Z</time>
      </trkpt>
      <trkpt lat="45.082763" lon="6.528000">
        <ele>2454.7</ele>
        <time>2014-09-24T10:15:54Z</time>
      </trkpt>
      <trkpt lat="45.082687" lon="6.528215">
        <ele>2455.4</ele>
        <time>2014-09-24T10:16:23Z</time>
      </trkpt>
      <trkpt lat="45.082637" lon="6.528450">
        <ele>2456.2</ele>
        <time>2014-09-24T10:16:47Z</time>
      </trkpt>
      <trkpt lat="45.082675" lon="6.528672">
        <ele>2455.8</ele>
        <time>2014-09-24T10:17:06Z</time>
      </trkpt>
      <trkpt lat="45.082777" lon="6.528863">
        <ele>2454.1</ele>
        <time>2014-09-24T10:17:23Z</time>
      </trkpt>
      <trkpt lat="45.082845" lon="6.528933">
        <ele>2452.9</ele>
        <time>2014-09-24T10:17:32Z</time>
      </trkpt>
      <trkpt lat="45.082905" lon="6.529148">
        <ele>2452.1</ele>
        <time>2014-09-24T10:18:17Z</time>
      </trkpt>
      <trkpt lat="45.082875" lon="6.529268">
        <ele>2454.3</ele>
        <time>2014-09-24T10:18:25Z</time>
      </trkpt>
      <trkpt lat="45.082965" lon="6.529463">
        <ele>2455.8</ele>
        <time>2014-09-24T10:18:55Z</time>
      </trkpt>
      <trkpt lat="45.082970" lon="6.529590">
        <ele>2457.8</ele>
        <time>2014-09-24T10:19:12Z</time>
      </trkpt>
      <trkpt lat="45.083052" lon="6.529753">
        <ele>2459.2</ele>
        <time>2014-09-24T10:20:06Z</time>
      </trkpt>
      <trkpt lat="45.083037" lon="6.529995">
        <ele>2463.4</ele>
        <time>2014-09-24T10:20:26Z</time>
      </trkpt>
      <trkpt lat="45.083168" lon="6.530147">
        <ele>2464.3</ele>
        <time>2014-09-24T10:20:48Z</time>
      </trkpt>
      <trkpt lat="45.083222" lon="6.530383">
        <ele>2468.3</ele>
        <time>2014-09-24T10:21:08Z</time>
      </trkpt>
      <trkpt lat="45.083177" lon="6.530568">
        <ele>2472.3</ele>
        <time>2014-09-24T10:21:24Z</time>
      </trkpt>
      <trkpt lat="45.083252" lon="6.530632">
        <ele>2473.0</ele>
        <time>2014-09-24T10:21:32Z</time>
      </trkpt>
      <trkpt lat="45.083354" lon="6.530814">
        <ele>2476.3</ele>
        <time>2014-09-24T10:21:51Z</time>
      </trkpt>
      <trkpt lat="45.083393" lon="6.530925">
        <ele>2477.5</ele>
        <time>2014-09-24T10:22:03Z</time>
      </trkpt>
      <trkpt lat="45.083403" lon="6.531168">
        <ele>2479.4</ele>
        <time>2014-09-24T10:22:25Z</time>
      </trkpt>
      <trkpt lat="45.083478" lon="6.531383">
        <ele>2480.9</ele>
        <time>2014-09-24T10:22:44Z</time>
      </trkpt>
      <trkpt lat="45.083568" lon="6.531172">
        <ele>2478.7</ele>
        <time>2014-09-24T10:23:12Z</time>
      </trkpt>
      <trkpt lat="45.083623" lon="6.531083">
        <ele>2477.7</ele>
        <time>2014-09-24T10:23:20Z</time>
      </trkpt>
      <trkpt lat="45.083747" lon="6.530900">
        <ele>2475.6</ele>
        <time>2014-09-24T10:23:38Z</time>
      </trkpt>
      <trkpt lat="45.083850" lon="6.530717">
        <ele>2472.4</ele>
        <time>2014-09-24T10:24:31Z</time>
      </trkpt>
      <trkpt lat="45.083828" lon="6.530493">
        <ele>2468.5</ele>
        <time>2014-09-24T10:24:47Z</time>
      </trkpt>
      <trkpt lat="45.083928" lon="6.530298">
        <ele>2464.9</ele>
        <time>2014-09-24T10:25:05Z</time>
      </trkpt>
      <trkpt lat="45.084047" lon="6.530117">
        <ele>2461.8</ele>
        <time>2014-09-24T10:25:36Z</time>
      </trkpt>
      <trkpt lat="45.084130" lon="6.530078">
        <ele>2461.2</ele>
        <time>2014-09-24T10:25:48Z</time>
      </trkpt>
      <trkpt lat="45.084290" lon="6.530108">
        <ele>2461.1</ele>
        <time>2014-09-24T10:26:03Z</time>
      </trkpt>
      <trkpt lat="45.084458" lon="6.530068">
        <ele>2460.0</ele>
        <time>2014-09-24T10:26:24Z</time>
      </trkpt>
      <trkpt lat="45.084623" lon="6.530087">
        <ele>2459.6</ele>
        <time>2014-09-24T10:27:01Z</time>
      </trkpt>
      <trkpt lat="45.084748" lon="6.529930">
        <ele>2458.2</ele>
        <time>2014-09-24T10:27:22Z</time>
      </trkpt>
      <trkpt lat="45.084878" lon="6.529845">
        <ele>2457.8</ele>
        <time>2014-09-24T10:27:57Z</time>
      </trkpt>
      <trkpt lat="45.084953" lon="6.529643">
        <ele>2457.1</ele>
        <time>2014-09-24T10:28:11Z</time>
      </trkpt>
      <trkpt lat="45.084982" lon="6.529523">
        <ele>2456.8</ele>
        <time>2014-09-24T10:28:19Z</time>
      </trkpt>
      <trkpt lat="45.085025" lon="6.529297">
        <ele>2456.2</ele>
        <time>2014-09-24T10:28:39Z</time>
      </trkpt>
      <trkpt lat="45.085100" lon="6.529097">
        <ele>2454.5</ele>
        <time>2014-09-24T10:28:55Z</time>
      </trkpt>
      <trkpt lat="45.085117" lon="6.528860">
        <ele>2451.7</ele>
        <time>2014-09-24T10:29:10Z</time>
      </trkpt>
      <trkpt lat="45.085110" lon="6.528738">
        <ele>2450.3</ele>
        <time>2014-09-24T10:30:44Z</time>
      </trkpt>
      <trkpt lat="45.085075" lon="6.528500">
        <ele>2447.6</ele>
        <time>2014-09-24T10:31:02Z</time>
      </trkpt>
      <trkpt lat="45.085075" lon="6.528380">
        <ele>2446.2</ele>
        <time>2014-09-24T10:31:10Z</time>
      </trkpt>
      <trkpt lat="45.085008" lon="6.528158">
        <ele>2444.6</ele>
        <time>2014-09-24T10:31:28Z</time>
      </trkpt>
      <trkpt lat="45.084917" lon="6.527962">
        <ele>2443.3</ele>
        <time>2014-09-24T10:31:51Z</time>
      </trkpt>
      <trkpt lat="45.084948" lon="6.527720">
        <ele>2441.7</ele>
        <time>2014-09-24T10:32:09Z</time>
      </trkpt>
      <trkpt lat="45.085003" lon="6.527498">
        <ele>2440.0</ele>
        <time>2014-09-24T10:32:39Z</time>
      </trkpt>
      <trkpt lat="45.085148" lon="6.527357">
        <ele>2438.2</ele>
        <time>2014-09-24T10:32:58Z</time>
      </trkpt>
      <trkpt lat="45.085303" lon="6.527278">
        <ele>2436.8</ele>
        <time>2014-09-24T10:33:15Z</time>
      </trkpt>
      <trkpt lat="45.085427" lon="6.527118">
        <ele>2435.1</ele>
        <time>2014-09-24T10:33:35Z</time>
      </trkpt>
      <trkpt lat="45.085485" lon="6.526902">
        <ele>2433.6</ele>
        <time>2014-09-24T10:33:52Z</time>
      </trkpt>
      <trkpt lat="45.085592" lon="6.526735">
        <ele>2432.0</ele>
        <time>2014-09-24T10:34:06Z</time>
      </trkpt>
      <trkpt lat="45.085670" lon="6.526685">
        <ele>2431.2</ele>
        <time>2014-09-24T10:34:13Z</time>
      </trkpt>
      <trkpt lat="45.085773" lon="6.526500">
        <ele>2428.7</ele>
        <time>2014-09-24T10:34:27Z</time>
      </trkpt>
      <trkpt lat="45.085838" lon="6.526418">
        <ele>2427.3</ele>
        <time>2014-09-24T10:34:35Z</time>
      </trkpt>
      <trkpt lat="45.085985" lon="6.526298">
        <ele>2426.0</ele>
        <time>2014-09-24T10:34:49Z</time>
      </trkpt>
      <trkpt lat="45.086075" lon="6.526095">
        <ele>2424.2</ele>
        <time>2014-09-24T10:35:05Z</time>
      </trkpt>
      <trkpt lat="45.086137" lon="6.526020">
        <ele>2423.7</ele>
        <time>2014-09-24T10:35:12Z</time>
      </trkpt>
      <trkpt lat="45.086220" lon="6.525813">
        <ele>2422.4</ele>
        <time>2014-09-24T10:35:26Z</time>
      </trkpt>
      <trkpt lat="45.086327" lon="6.525647">
        <ele>2422.3</ele>
        <time>2014-09-24T10:35:38Z</time>
      </trkpt>
      <trkpt lat="45.086447" lon="6.525485">
        <ele>2421.9</ele>
        <time>2014-09-24T10:35:51Z</time>
      </trkpt>
      <trkpt lat="45.086533" lon="6.525297">
        <ele>2421.0</ele>
        <time>2014-09-24T10:36:05Z</time>
      </trkpt>
      <trkpt lat="45.086623" lon="6.525078">
        <ele>2419.6</ele>
        <time>2014-09-24T10:36:19Z</time>
      </trkpt>
      <trkpt lat="45.086667" lon="6.524843">
        <ele>2417.3</ele>
        <time>2014-09-24T10:36:34Z</time>
      </trkpt>
      <trkpt lat="45.086730" lon="6.524633">
        <ele>2415.4</ele>
        <time>2014-09-24T10:36:49Z</time>
      </trkpt>
      <trkpt lat="45.086783" lon="6.524412">
        <ele>2413.8</ele>
        <time>2014-09-24T10:37:03Z</time>
      </trkpt>
      <trkpt lat="45.086837" lon="6.524322">
        <ele>2413.5</ele>
        <time>2014-09-24T10:40:47Z</time>
      </trkpt>
      <trkpt lat="45.086870" lon="6.524090">
        <ele>2412.0</ele>
        <time>2014-09-24T10:41:05Z</time>
      </trkpt>
      <trkpt lat="45.086893" lon="6.523858">
        <ele>2410.9</ele>
        <time>2014-09-24T10:41:19Z</time>
      </trkpt>
      <trkpt lat="45.086858" lon="6.523635">
        <ele>2408.8</ele>
        <time>2014-09-24T10:41:32Z</time>
      </trkpt>
      <trkpt lat="45.086748" lon="6.523442">
        <ele>2404.4</ele>
        <time>2014-09-24T10:41:49Z</time>
      </trkpt>
      <trkpt lat="45.086685" lon="6.523358">
        <ele>2401.9</ele>
        <time>2014-09-24T10:41:56Z</time>
      </trkpt>
      <trkpt lat="45.086575" lon="6.523167">
        <ele>2401.1</ele>
        <time>2014-09-24T10:42:21Z</time>
      </trkpt>
      <trkpt lat="45.086552" lon="6.522928">
        <ele>2400.5</ele>
        <time>2014-09-24T10:42:40Z</time>
      </trkpt>
      <trkpt lat="45.086603" lon="6.522703">
        <ele>2399.6</ele>
        <time>2014-09-24T10:42:57Z</time>
      </trkpt>
      <trkpt lat="45.086613" lon="6.522460">
        <ele>2399.0</ele>
        <time>2014-09-24T10:43:15Z</time>
      </trkpt>
      <trkpt lat="45.086645" lon="6.522238">
        <ele>2399.0</ele>
        <time>2014-09-24T10:43:31Z</time>
      </trkpt>
      <trkpt lat="45.086698" lon="6.522012">
        <ele>2400.6</ele>
        <time>2014-09-24T10:43:48Z</time>
      </trkpt>
      <trkpt lat="45.086722" lon="6.521777">
        <ele>2401.9</ele>
        <time>2014-09-24T10:44:05Z</time>
      </trkpt>
      <trkpt lat="45.086690" lon="6.521527">
        <ele>2402.1</ele>
        <time>2014-09-24T10:44:23Z</time>
      </trkpt>
      <trkpt lat="45.086593" lon="6.521320">
        <ele>2402.2</ele>
        <time>2014-09-24T10:44:51Z</time>
      </trkpt>
      <trkpt lat="45.086465" lon="6.521173">
        <ele>2400.5</ele>
        <time>2014-09-24T10:45:05Z</time>
      </trkpt>
      <trkpt lat="45.086252" lon="6.521038">
        <ele>2394.9</ele>
        <time>2014-09-24T10:46:12Z</time>
      </trkpt>
      <trkpt lat="45.086108" lon="6.520893">
        <ele>2389.6</ele>
        <time>2014-09-24T10:46:27Z</time>
      </trkpt>
      <trkpt lat="45.086002" lon="6.520723">
        <ele>2384.8</ele>
        <time>2014-09-24T10:46:42Z</time>
      </trkpt>
      <trkpt lat="45.085983" lon="6.520477">
        <ele>2383.0</ele>
        <time>2014-09-24T10:47:09Z</time>
      </trkpt>
      <trkpt lat="45.085958" lon="6.520357">
        <ele>2381.5</ele>
        <time>2014-09-24T10:47:19Z</time>
      </trkpt>
      <trkpt lat="45.085952" lon="6.520110">
        <ele>2380.1</ele>
        <time>2014-09-24T10:47:33Z</time>
      </trkpt>
      <trkpt lat="45.085930" lon="6.519883">
        <ele>2377.3</ele>
        <time>2014-09-24T10:47:47Z</time>
      </trkpt>
      <trkpt lat="45.085923" lon="6.519658">
        <ele>2374.5</ele>
        <time>2014-09-24T10:48:11Z</time>
      </trkpt>
      <trkpt lat="45.085923" lon="6.519545">
        <ele>2373.3</ele>
        <time>2014-09-24T10:48:17Z</time>
      </trkpt>
      <trkpt lat="45.085862" lon="6.519322">
        <ele>2368.1</ele>
        <time>2014-09-24T10:48:32Z</time>
      </trkpt>
      <trkpt lat="45.085860" lon="6.519197">
        <ele>2366.5</ele>
        <time>2014-09-24T10:48:40Z</time>
      </trkpt>
      <trkpt lat="45.085898" lon="6.518962">
        <ele>2366.6</ele>
        <time>2014-09-24T10:48:54Z</time>
      </trkpt>
      <trkpt lat="45.085925" lon="6.518730">
        <ele>2366.4</ele>
        <time>2014-09-24T10:49:08Z</time>
      </trkpt>
      <trkpt lat="45.085965" lon="6.518618">
        <ele>2367.8</ele>
        <time>2014-09-24T10:49:16Z</time>
      </trkpt>
      <trkpt lat="45.085910" lon="6.518393">
        <ele>2363.5</ele>
        <time>2014-09-24T10:49:35Z</time>
      </trkpt>
      <trkpt lat="45.085878" lon="6.518153">
        <ele>2361.6</ele>
        <time>2014-09-24T10:49:55Z</time>
      </trkpt>
      <trkpt lat="45.085918" lon="6.517917">
        <ele>2363.7</ele>
        <time>2014-09-24T10:50:20Z</time>
      </trkpt>
      <trkpt lat="45.085915" lon="6.517673">
        <ele>2363.7</ele>
        <time>2014-09-24T10:50:43Z</time>
      </trkpt>
      <trkpt lat="45.085795" lon="6.517518">
        <ele>2358.7</ele>
        <time>2014-09-24T10:51:02Z</time>
      </trkpt>
      <trkpt lat="45.085702" lon="6.517315">
        <ele>2353.5</ele>
        <time>2014-09-24T10:51:20Z</time>
      </trkpt>
      <trkpt lat="45.085702" lon="6.516968">
        <ele>2350.4</ele>
        <time>2014-09-24T10:51:51Z</time>
      </trkpt>
      <trkpt lat="45.085590" lon="6.516792">
        <ele>2344.3</ele>
        <time>2014-09-24T10:52:22Z</time>
      </trkpt>
      <trkpt lat="45.085535" lon="6.516692">
        <ele>2341.2</ele>
        <time>2014-09-24T10:52:37Z</time>
      </trkpt>
      <trkpt lat="45.085378" lon="6.516597">
        <ele>2334.8</ele>
        <time>2014-09-24T10:52:55Z</time>
      </trkpt>
      <trkpt lat="45.085213" lon="6.516543">
        <ele>2328.3</ele>
        <time>2014-09-24T10:53:11Z</time>
      </trkpt>
      <trkpt lat="45.085108" lon="6.516365">
        <ele>2324.6</ele>
        <time>2014-09-24T10:53:36Z</time>
      </trkpt>
      <trkpt lat="45.084947" lon="6.516298">
        <ele>2319.2</ele>
        <time>2014-09-24T10:53:53Z</time>
      </trkpt>
      <trkpt lat="45.084795" lon="6.516178">
        <ele>2315.7</ele>
        <time>2014-09-24T10:54:10Z</time>
      </trkpt>
      <trkpt lat="45.084680" lon="6.516015">
        <ele>2312.7</ele>
        <time>2014-09-24T10:54:26Z</time>
      </trkpt>
      <trkpt lat="45.084575" lon="6.515845">
        <ele>2309.3</ele>
        <time>2014-09-24T10:54:40Z</time>
      </trkpt>
      <trkpt lat="45.084430" lon="6.515698">
        <ele>2305.3</ele>
        <time>2014-09-24T10:55:02Z</time>
      </trkpt>
      <trkpt lat="45.084367" lon="6.515627">
        <ele>2303.5</ele>
        <time>2014-09-24T10:55:11Z</time>
      </trkpt>
      <trkpt lat="45.084250" lon="6.515452">
        <ele>2299.9</ele>
        <time>2014-09-24T10:55:28Z</time>
      </trkpt>
      <trkpt lat="45.084108" lon="6.515318">
        <ele>2296.4</ele>
        <time>2014-09-24T10:55:45Z</time>
      </trkpt>
      <trkpt lat="45.084027" lon="6.515267">
        <ele>2295.4</ele>
        <time>2014-09-24T10:55:52Z</time>
      </trkpt>
      <trkpt lat="45.083868" lon="6.515187">
        <ele>2293.1</ele>
        <time>2014-09-24T10:56:07Z</time>
      </trkpt>
      <trkpt lat="45.083755" lon="6.515020">
        <ele>2289.8</ele>
        <time>2014-09-24T10:56:26Z</time>
      </trkpt>
      <trkpt lat="45.083650" lon="6.514840">
        <ele>2286.7</ele>
        <time>2014-09-24T10:56:49Z</time>
      </trkpt>
      <trkpt lat="45.083527" lon="6.514687">
        <ele>2283.3</ele>
        <time>2014-09-24T10:57:08Z</time>
      </trkpt>
      <trkpt lat="45.083473" lon="6.514453">
        <ele>2280.5</ele>
        <time>2014-09-24T10:57:31Z</time>
      </trkpt>
      <trkpt lat="45.083428" lon="6.514345">
        <ele>2278.6</ele>
        <time>2014-09-24T10:57:46Z</time>
      </trkpt>
      <trkpt lat="45.083367" lon="6.514127">
        <ele>2275.6</ele>
        <time>2014-09-24T10:58:27Z</time>
      </trkpt>
      <trkpt lat="45.083250" lon="6.513957">
        <ele>2272.8</ele>
        <time>2014-09-24T10:58:48Z</time>
      </trkpt>
      <trkpt lat="45.082950" lon="6.513793">
        <ele>2268.3</ele>
        <time>2014-09-24T10:59:14Z</time>
      </trkpt>
      <trkpt lat="45.082793" lon="6.513695">
        <ele>2265.4</ele>
        <time>2014-09-24T10:59:29Z</time>
      </trkpt>
      <trkpt lat="45.082715" lon="6.513633">
        <ele>2263.9</ele>
        <time>2014-09-24T10:59:39Z</time>
      </trkpt>
      <trkpt lat="45.082567" lon="6.513532">
        <ele>2260.7</ele>
        <time>2014-09-24T10:59:56Z</time>
      </trkpt>
      <trkpt lat="45.082430" lon="6.513385">
        <ele>2258.0</ele>
        <time>2014-09-24T11:00:09Z</time>
      </trkpt>
      <trkpt lat="45.082273" lon="6.513322">
        <ele>2257.4</ele>
        <time>2014-09-24T11:00:20Z</time>
      </trkpt>
      <trkpt lat="45.082127" lon="6.513190">
        <ele>2256.1</ele>
        <time>2014-09-24T11:00:37Z</time>
      </trkpt>
      <trkpt lat="45.081962" lon="6.513172">
        <ele>2255.6</ele>
        <time>2014-09-24T11:00:54Z</time>
      </trkpt>
      <trkpt lat="45.081807" lon="6.513087">
        <ele>2254.0</ele>
        <time>2014-09-24T11:01:10Z</time>
      </trkpt>
      <trkpt lat="45.081670" lon="6.512953">
        <ele>2250.6</ele>
        <time>2014-09-24T11:01:25Z</time>
      </trkpt>
      <trkpt lat="45.081673" lon="6.512947">
        <ele>2250.6</ele>
        <time>2014-09-24T11:01:52Z</time>
      </trkpt>
      <trkpt lat="45.081515" lon="6.512847">
        <ele>2248.3</ele>
        <time>2014-09-24T11:02:25Z</time>
      </trkpt>
      <trkpt lat="45.081347" lon="6.512683">
        <ele>2244.2</ele>
        <time>2014-09-24T11:02:50Z</time>
      </trkpt>
      <trkpt lat="45.081208" lon="6.512532">
        <ele>2239.5</ele>
        <time>2014-09-24T11:03:08Z</time>
      </trkpt>
      <trkpt lat="45.081182" lon="6.512328">
        <ele>2234.7</ele>
        <time>2014-09-24T11:04:04Z</time>
      </trkpt>
      <trkpt lat="45.081267" lon="6.512145">
        <ele>2232.0</ele>
        <time>2014-09-24T11:04:56Z</time>
      </trkpt>
      <trkpt lat="45.081135" lon="6.511988">
        <ele>2226.5</ele>
        <time>2014-09-24T11:05:53Z</time>
      </trkpt>
      <trkpt lat="45.081168" lon="6.511870">
        <ele>2224.6</ele>
        <time>2014-09-24T11:06:07Z</time>
      </trkpt>
      <trkpt lat="45.081008" lon="6.511815">
        <ele>2219.6</ele>
        <time>2014-09-24T11:06:32Z</time>
      </trkpt>
      <trkpt lat="45.081045" lon="6.511593">
        <ele>2215.8</ele>
        <time>2014-09-24T11:07:08Z</time>
      </trkpt>
      <trkpt lat="45.080968" lon="6.511383">
        <ele>2210.6</ele>
        <time>2014-09-24T11:07:46Z</time>
      </trkpt>
      <trkpt lat="45.080968" lon="6.511257">
        <ele>2208.8</ele>
        <time>2014-09-24T11:08:06Z</time>
      </trkpt>
      <trkpt lat="45.080907" lon="6.511040">
        <ele>2203.7</ele>
        <time>2014-09-24T11:08:31Z</time>
      </trkpt>
      <trkpt lat="45.080755" lon="6.510968">
        <ele>2198.8</ele>
        <time>2014-09-24T11:09:16Z</time>
      </trkpt>
      <trkpt lat="45.080697" lon="6.510887">
        <ele>2196.5</ele>
        <time>2014-09-24T11:09:22Z</time>
      </trkpt>
      <trkpt lat="45.080540" lon="6.510800">
        <ele>2192.3</ele>
        <time>2014-09-24T11:09:35Z</time>
      </trkpt>
      <trkpt lat="45.080408" lon="6.510667">
        <ele>2188.4</ele>
        <time>2014-09-24T11:09:46Z</time>
      </trkpt>
      <trkpt lat="45.080292" lon="6.510508">
        <ele>2184.4</ele>
        <time>2014-09-24T11:09:56Z</time>
      </trkpt>
      <trkpt lat="45.080072" lon="6.510143">
        <ele>2176.0</ele>
        <time>2014-09-24T11:10:22Z</time>
      </trkpt>
      <trkpt lat="45.079910" lon="6.509727">
        <ele>2170.4</ele>
        <time>2014-09-24T11:10:47Z</time>
      </trkpt>
      <trkpt lat="45.080097" lon="6.509744">
        <ele>2172.6</ele>
        <time>2014-09-24T11:11:16Z</time>
      </trkpt>
      <trkpt lat="45.079937" lon="6.509750">
        <ele>2170.7</ele>
        <time>2014-09-24T11:11:35Z</time>
      </trkpt>
      <trkpt lat="45.079777" lon="6.509823">
        <ele>2170.2</ele>
        <time>2014-09-24T11:11:51Z</time>
      </trkpt>
      <trkpt lat="45.079698" lon="6.509868">
        <ele>2170.0</ele>
        <time>2014-09-24T11:11:59Z</time>
      </trkpt>
      <trkpt lat="45.079548" lon="6.509988">
        <ele>2169.7</ele>
        <time>2014-09-24T11:12:13Z</time>
      </trkpt>
      <trkpt lat="45.079468" lon="6.510003">
        <ele>2169.2</ele>
        <time>2014-09-24T11:12:20Z</time>
      </trkpt>
      <trkpt lat="45.079307" lon="6.510048">
        <ele>2168.3</ele>
        <time>2014-09-24T11:12:33Z</time>
      </trkpt>
      <trkpt lat="45.079152" lon="6.510147">
        <ele>2167.9</ele>
        <time>2014-09-24T11:12:47Z</time>
      </trkpt>
      <trkpt lat="45.079070" lon="6.510158">
        <ele>2167.3</ele>
        <time>2014-09-24T11:12:53Z</time>
      </trkpt>
      <trkpt lat="45.078910" lon="6.510215">
        <ele>2166.1</ele>
        <time>2014-09-24T11:13:06Z</time>
      </trkpt>
      <trkpt lat="45.078760" lon="6.510320">
        <ele>2165.3</ele>
        <time>2014-09-24T11:13:20Z</time>
      </trkpt>
      <trkpt lat="45.078678" lon="6.510370">
        <ele>2164.8</ele>
        <time>2014-09-24T11:13:28Z</time>
      </trkpt>
      <trkpt lat="45.078510" lon="6.510442">
        <ele>2163.4</ele>
        <time>2014-09-24T11:13:42Z</time>
      </trkpt>
      <trkpt lat="45.078435" lon="6.510488">
        <ele>2162.8</ele>
        <time>2014-09-24T11:13:49Z</time>
      </trkpt>
      <trkpt lat="45.078285" lon="6.510617">
        <ele>2161.8</ele>
        <time>2014-09-24T11:14:04Z</time>
      </trkpt>
      <trkpt lat="45.078233" lon="6.510705">
        <ele>2161.6</ele>
        <time>2014-09-24T11:14:12Z</time>
      </trkpt>
      <trkpt lat="45.078087" lon="6.510812">
        <ele>2160.6</ele>
        <time>2014-09-24T11:14:25Z</time>
      </trkpt>
      <trkpt lat="45.077925" lon="6.510832">
        <ele>2159.1</ele>
        <time>2014-09-24T11:14:37Z</time>
      </trkpt>
      <trkpt lat="45.077768" lon="6.510863">
        <ele>2158.2</ele>
        <time>2014-09-24T11:14:49Z</time>
      </trkpt>
      <trkpt lat="45.077622" lon="6.510962">
        <ele>2158.7</ele>
        <time>2014-09-24T11:15:19Z</time>
      </trkpt>
      <trkpt lat="45.077562" lon="6.511035">
        <ele>2159.3</ele>
        <time>2014-09-24T11:15:26Z</time>
      </trkpt>
      <trkpt lat="45.077418" lon="6.511148">
        <ele>2159.9</ele>
        <time>2014-09-24T11:15:37Z</time>
      </trkpt>
      <trkpt lat="45.077272" lon="6.511243">
        <ele>2160.0</ele>
        <time>2014-09-24T11:15:52Z</time>
      </trkpt>
      <trkpt lat="45.077132" lon="6.511373">
        <ele>2160.5</ele>
        <time>2014-09-24T11:16:07Z</time>
      </trkpt>
      <trkpt lat="45.076980" lon="6.511450">
        <ele>2160.0</ele>
        <time>2014-09-24T11:16:19Z</time>
      </trkpt>
      <trkpt lat="45.076842" lon="6.511582">
        <ele>2160.1</ele>
        <time>2014-09-24T11:16:30Z</time>
      </trkpt>
      <trkpt lat="45.076682" lon="6.511633">
        <ele>2158.7</ele>
        <time>2014-09-24T11:16:43Z</time>
      </trkpt>
      <trkpt lat="45.076567" lon="6.511802">
        <ele>2161.0</ele>
        <time>2014-09-24T11:18:04Z</time>
      </trkpt>
      <trkpt lat="45.076427" lon="6.511928">
        <ele>2161.8</ele>
        <time>2014-09-24T11:18:16Z</time>
      </trkpt>
      <trkpt lat="45.076372" lon="6.512005">
        <ele>2162.6</ele>
        <time>2014-09-24T11:18:22Z</time>
      </trkpt>
      <trkpt lat="45.076228" lon="6.512152">
        <ele>2162.9</ele>
        <time>2014-09-24T11:18:35Z</time>
      </trkpt>
      <trkpt lat="45.076070" lon="6.512198">
        <ele>2160.4</ele>
        <time>2014-09-24T11:18:49Z</time>
      </trkpt>
      <trkpt lat="45.075912" lon="6.512278">
        <ele>2158.5</ele>
        <time>2014-09-24T11:19:01Z</time>
      </trkpt>
      <trkpt lat="45.075847" lon="6.512350">
        <ele>2158.0</ele>
        <time>2014-09-24T11:19:08Z</time>
      </trkpt>
      <trkpt lat="45.075703" lon="6.512482">
        <ele>2157.5</ele>
        <time>2014-09-24T11:19:22Z</time>
      </trkpt>
      <trkpt lat="45.075632" lon="6.512535">
        <ele>2157.4</ele>
        <time>2014-09-24T11:19:29Z</time>
      </trkpt>
      <trkpt lat="45.075300" lon="6.512865">
        <ele>2161.2</ele>
        <time>2014-09-24T11:20:01Z</time>
      </trkpt>
      <trkpt lat="45.075225" lon="6.512927">
        <ele>2161.0</ele>
        <time>2014-09-24T11:20:08Z</time>
      </trkpt>
      <trkpt lat="45.075087" lon="6.513087">
        <ele>2162.2</ele>
        <time>2014-09-24T11:20:22Z</time>
      </trkpt>
      <trkpt lat="45.074938" lon="6.513182">
        <ele>2161.0</ele>
        <time>2014-09-24T11:20:35Z</time>
      </trkpt>
      <trkpt lat="45.074797" lon="6.513323">
        <ele>2161.4</ele>
        <time>2014-09-24T11:20:50Z</time>
      </trkpt>
      <trkpt lat="45.074639" lon="6.513303">
        <ele>2157.4</ele>
        <time>2014-09-24T11:21:04Z</time>
      </trkpt>
      <trkpt lat="45.074468" lon="6.513357">
        <ele>2155.1</ele>
        <time>2014-09-24T11:21:18Z</time>
      </trkpt>
      <trkpt lat="45.074325" lon="6.513485">
        <ele>2156.9</ele>
        <time>2014-09-24T11:21:34Z</time>
      </trkpt>
      <trkpt lat="45.074263" lon="6.513577">
        <ele>2159.0</ele>
        <time>2014-09-24T11:21:41Z</time>
      </trkpt>
      <trkpt lat="45.074105" lon="6.513642">
        <ele>2158.1</ele>
        <time>2014-09-24T11:21:56Z</time>
      </trkpt>
      <trkpt lat="45.073948" lon="6.513747">
        <ele>2159.0</ele>
        <time>2014-09-24T11:22:11Z</time>
      </trkpt>
      <trkpt lat="45.073802" lon="6.513857">
        <ele>2160.0</ele>
        <time>2014-09-24T11:22:25Z</time>
      </trkpt>
      <trkpt lat="45.073663" lon="6.513982">
        <ele>2160.7</ele>
        <time>2014-09-24T11:22:39Z</time>
      </trkpt>
      <trkpt lat="45.073505" lon="6.514028">
        <ele>2158.5</ele>
        <time>2014-09-24T11:22:53Z</time>
      </trkpt>
      <trkpt lat="45.073423" lon="6.514060">
        <ele>2157.3</ele>
        <time>2014-09-24T11:23:00Z</time>
      </trkpt>
      <trkpt lat="45.073273" lon="6.514160">
        <ele>2156.9</ele>
        <time>2014-09-24T11:23:13Z</time>
      </trkpt>
      <trkpt lat="45.073197" lon="6.514173">
        <ele>2156.2</ele>
        <time>2014-09-24T11:23:19Z</time>
      </trkpt>
      <trkpt lat="45.073027" lon="6.514238">
        <ele>2156.4</ele>
        <time>2014-09-24T11:23:33Z</time>
      </trkpt>
      <trkpt lat="45.072868" lon="6.514335">
        <ele>2157.9</ele>
        <time>2014-09-24T11:23:47Z</time>
      </trkpt>
      <trkpt lat="45.072703" lon="6.514373">
        <ele>2156.8</ele>
        <time>2014-09-24T11:24:01Z</time>
      </trkpt>
      <trkpt lat="45.072557" lon="6.514482">
        <ele>2157.8</ele>
        <time>2014-09-24T11:24:16Z</time>
      </trkpt>
      <trkpt lat="45.072452" lon="6.514670">
        <ele>2161.4</ele>
        <time>2014-09-24T11:24:29Z</time>
      </trkpt>
      <trkpt lat="45.072305" lon="6.514788">
        <ele>2161.3</ele>
        <time>2014-09-24T11:24:42Z</time>
      </trkpt>
      <trkpt lat="45.072150" lon="6.514867">
        <ele>2159.6</ele>
        <time>2014-09-24T11:24:57Z</time>
      </trkpt>
      <trkpt lat="45.071842" lon="6.515035">
        <ele>2155.9</ele>
        <time>2014-09-24T11:25:25Z</time>
      </trkpt>
      <trkpt lat="45.071688" lon="6.515132">
        <ele>2155.7</ele>
        <time>2014-09-24T11:25:39Z</time>
      </trkpt>
      <trkpt lat="45.071532" lon="6.515182">
        <ele>2154.1</ele>
        <time>2014-09-24T11:25:53Z</time>
      </trkpt>
      <trkpt lat="45.071392" lon="6.515295">
        <ele>2155.0</ele>
        <time>2014-09-24T11:26:06Z</time>
      </trkpt>
      <trkpt lat="45.071237" lon="6.515382">
        <ele>2155.0</ele>
        <time>2014-09-24T11:26:23Z</time>
      </trkpt>
      <trkpt lat="45.071077" lon="6.515485">
        <ele>2155.4</ele>
        <time>2014-09-24T11:26:37Z</time>
      </trkpt>
      <trkpt lat="45.070933" lon="6.515602">
        <ele>2156.5</ele>
        <time>2014-09-24T11:26:52Z</time>
      </trkpt>
      <trkpt lat="45.070767" lon="6.515653">
        <ele>2154.4</ele>
        <time>2014-09-24T11:27:08Z</time>
      </trkpt>
      <trkpt lat="45.070613" lon="6.515742">
        <ele>2153.4</ele>
        <time>2014-09-24T11:27:24Z</time>
      </trkpt>
      <trkpt lat="45.070447" lon="6.515798">
        <ele>2150.6</ele>
        <time>2014-09-24T11:27:38Z</time>
      </trkpt>
      <trkpt lat="45.070293" lon="6.515785">
        <ele>2145.7</ele>
        <time>2014-09-24T11:28:29Z</time>
      </trkpt>
      <trkpt lat="45.070222" lon="6.515840">
        <ele>2145.4</ele>
        <time>2014-09-24T11:28:36Z</time>
      </trkpt>
      <trkpt lat="45.070068" lon="6.515917">
        <ele>2144.2</ele>
        <time>2014-09-24T11:28:52Z</time>
      </trkpt>
      <trkpt lat="45.069987" lon="6.515947">
        <ele>2143.0</ele>
        <time>2014-09-24T11:28:58Z</time>
      </trkpt>
      <trkpt lat="45.069707" lon="6.516177">
        <ele>2145.0</ele>
        <time>2014-09-24T11:29:21Z</time>
      </trkpt>
      <trkpt lat="45.069550" lon="6.516217">
        <ele>2142.2</ele>
        <time>2014-09-24T11:30:43Z</time>
      </trkpt>
      <trkpt lat="45.069418" lon="6.516360">
        <ele>2144.4</ele>
        <time>2014-09-24T11:30:55Z</time>
      </trkpt>
      <trkpt lat="45.069143" lon="6.516623">
        <ele>2147.1</ele>
        <time>2014-09-24T11:31:22Z</time>
      </trkpt>
      <trkpt lat="45.068985" lon="6.516602">
        <ele>2140.9</ele>
        <time>2014-09-24T11:31:48Z</time>
      </trkpt>
      <trkpt lat="45.068868" lon="6.516748">
        <ele>2141.3</ele>
        <time>2014-09-24T11:31:54Z</time>
      </trkpt>
      <trkpt lat="45.068767" lon="6.516863">
        <ele>2140.6</ele>
        <time>2014-09-24T11:32:01Z</time>
      </trkpt>
      <trkpt lat="45.068633" lon="6.516968">
        <ele>2138.8</ele>
        <time>2014-09-24T11:32:10Z</time>
      </trkpt>
      <trkpt lat="45.068468" lon="6.517017">
        <ele>2134.7</ele>
        <time>2014-09-24T11:32:24Z</time>
      </trkpt>
      <trkpt lat="45.068333" lon="6.517138">
        <ele>2133.5</ele>
        <time>2014-09-24T11:32:35Z</time>
      </trkpt>
      <trkpt lat="45.068237" lon="6.517340">
        <ele>2136.3</ele>
        <time>2014-09-24T11:32:49Z</time>
      </trkpt>
      <trkpt lat="45.068097" lon="6.517460">
        <ele>2135.9</ele>
        <time>2014-09-24T11:33:04Z</time>
      </trkpt>
      <trkpt lat="45.067927" lon="6.517498">
        <ele>2131.8</ele>
        <time>2014-09-24T11:33:21Z</time>
      </trkpt>
      <trkpt lat="45.067778" lon="6.517603">
        <ele>2129.4</ele>
        <time>2014-09-24T11:33:36Z</time>
      </trkpt>
      <trkpt lat="45.067670" lon="6.517773">
        <ele>2129.6</ele>
        <time>2014-09-24T11:33:53Z</time>
      </trkpt>
      <trkpt lat="45.067568" lon="6.517955">
        <ele>2130.6</ele>
        <time>2014-09-24T11:34:07Z</time>
      </trkpt>
      <trkpt lat="45.067427" lon="6.518100">
        <ele>2129.7</ele>
        <time>2014-09-24T11:34:20Z</time>
      </trkpt>
      <trkpt lat="45.067298" lon="6.518265">
        <ele>2128.8</ele>
        <time>2014-09-24T11:34:34Z</time>
      </trkpt>
      <trkpt lat="45.067025" lon="6.518563">
        <ele>2123.2</ele>
        <time>2014-09-24T11:35:02Z</time>
      </trkpt>
      <trkpt lat="45.066962" lon="6.518642">
        <ele>2121.8</ele>
        <time>2014-09-24T11:35:09Z</time>
      </trkpt>
      <trkpt lat="45.066828" lon="6.518783">
        <ele>2119.0</ele>
        <time>2014-09-24T11:35:22Z</time>
      </trkpt>
      <trkpt lat="45.066758" lon="6.518850">
        <ele>2117.5</ele>
        <time>2014-09-24T11:35:28Z</time>
      </trkpt>
      <trkpt lat="45.066625" lon="6.518988">
        <ele>2115.1</ele>
        <time>2014-09-24T11:35:40Z</time>
      </trkpt>
      <trkpt lat="45.066607" lon="6.519112">
        <ele>2115.7</ele>
        <time>2014-09-24T11:36:03Z</time>
      </trkpt>
      <trkpt lat="45.066485" lon="6.519280">
        <ele>2112.8</ele>
        <time>2014-09-24T11:36:16Z</time>
      </trkpt>
      <trkpt lat="45.066447" lon="6.519380">
        <ele>2111.8</ele>
        <time>2014-09-24T11:36:23Z</time>
      </trkpt>
      <trkpt lat="45.066340" lon="6.519558">
        <ele>2109.3</ele>
        <time>2014-09-24T11:36:36Z</time>
      </trkpt>
      <trkpt lat="45.066275" lon="6.519632">
        <ele>2107.9</ele>
        <time>2014-09-24T11:36:41Z</time>
      </trkpt>
      <trkpt lat="45.066128" lon="6.519750">
        <ele>2105.1</ele>
        <time>2014-09-24T11:36:55Z</time>
      </trkpt>
      <trkpt lat="45.065832" lon="6.519997">
        <ele>2100.9</ele>
        <time>2014-09-24T11:37:22Z</time>
      </trkpt>
      <trkpt lat="45.065708" lon="6.520153">
        <ele>2100.2</ele>
        <time>2014-09-24T11:37:35Z</time>
      </trkpt>
      <trkpt lat="45.065505" lon="6.520550">
        <ele>2100.9</ele>
        <time>2014-09-24T11:38:04Z</time>
      </trkpt>
      <trkpt lat="45.065367" lon="6.520677">
        <ele>2099.6</ele>
        <time>2014-09-24T11:38:18Z</time>
      </trkpt>
      <trkpt lat="45.065088" lon="6.520872">
        <ele>2096.4</ele>
        <time>2014-09-24T11:38:45Z</time>
      </trkpt>
      <trkpt lat="45.064952" lon="6.520983">
        <ele>2094.8</ele>
        <time>2014-09-24T11:38:58Z</time>
      </trkpt>
      <trkpt lat="45.064892" lon="6.521067">
        <ele>2094.7</ele>
        <time>2014-09-24T11:39:05Z</time>
      </trkpt>
      <trkpt lat="45.064768" lon="6.521227">
        <ele>2093.8</ele>
        <time>2014-09-24T11:39:20Z</time>
      </trkpt>
      <trkpt lat="45.064690" lon="6.521287">
        <ele>2092.8</ele>
        <time>2014-09-24T11:39:27Z</time>
      </trkpt>
      <trkpt lat="45.064538" lon="6.521332">
        <ele>2089.5</ele>
        <time>2014-09-24T11:39:39Z</time>
      </trkpt>
      <trkpt lat="45.064427" lon="6.521488">
        <ele>2088.9</ele>
        <time>2014-09-24T11:39:51Z</time>
      </trkpt>
      <trkpt lat="45.064168" lon="6.521533">
        <ele>2083.0</ele>
        <time>2014-09-24T11:40:12Z</time>
      </trkpt>
      <trkpt lat="45.063947" lon="6.521733">
        <ele>2082.4</ele>
        <time>2014-09-24T11:40:33Z</time>
      </trkpt>
      <trkpt lat="45.063837" lon="6.521907">
        <ele>2085.7</ele>
        <time>2014-09-24T11:40:47Z</time>
      </trkpt>
      <trkpt lat="45.063745" lon="6.522110">
        <ele>2090.6</ele>
        <time>2014-09-24T11:41:02Z</time>
      </trkpt>
      <trkpt lat="45.063597" lon="6.522232">
        <ele>2090.3</ele>
        <time>2014-09-24T11:41:14Z</time>
      </trkpt>
      <trkpt lat="45.063522" lon="6.522288">
        <ele>2089.8</ele>
        <time>2014-09-24T11:41:20Z</time>
      </trkpt>
      <trkpt lat="45.063387" lon="6.522420">
        <ele>2090.3</ele>
        <time>2014-09-24T11:41:33Z</time>
      </trkpt>
      <trkpt lat="45.063317" lon="6.522477">
        <ele>2089.6</ele>
        <time>2014-09-24T11:41:39Z</time>
      </trkpt>
      <trkpt lat="45.063168" lon="6.522582">
        <ele>2087.4</ele>
        <time>2014-09-24T11:41:52Z</time>
      </trkpt>
      <trkpt lat="45.063102" lon="6.522640">
        <ele>2086.8</ele>
        <time>2014-09-24T11:41:58Z</time>
      </trkpt>
      <trkpt lat="45.062948" lon="6.522742">
        <ele>2084.7</ele>
        <time>2014-09-24T11:42:12Z</time>
      </trkpt>
      <trkpt lat="45.062863" lon="6.522767">
        <ele>2082.4</ele>
        <time>2014-09-24T11:42:19Z</time>
      </trkpt>
      <trkpt lat="45.062550" lon="6.522970">
        <ele>2077.9</ele>
        <time>2014-09-24T11:42:47Z</time>
      </trkpt>
      <trkpt lat="45.062432" lon="6.523130">
        <ele>2079.0</ele>
        <time>2014-09-24T11:42:59Z</time>
      </trkpt>
      <trkpt lat="45.062357" lon="6.523197">
        <ele>2078.5</ele>
        <time>2014-09-24T11:43:06Z</time>
      </trkpt>
      <trkpt lat="45.062058" lon="6.523368">
        <ele>2072.1</ele>
        <time>2014-09-24T11:43:30Z</time>
      </trkpt>
      <trkpt lat="45.061908" lon="6.523473">
        <ele>2069.0</ele>
        <time>2014-09-24T11:43:42Z</time>
      </trkpt>
      <trkpt lat="45.061838" lon="6.523533">
        <ele>2068.2</ele>
        <time>2014-09-24T11:43:48Z</time>
      </trkpt>
      <trkpt lat="45.061683" lon="6.523615">
        <ele>2064.5</ele>
        <time>2014-09-24T11:44:00Z</time>
      </trkpt>
      <trkpt lat="45.061540" lon="6.523758">
        <ele>2064.3</ele>
        <time>2014-09-24T11:44:13Z</time>
      </trkpt>
      <trkpt lat="45.061397" lon="6.523877">
        <ele>2063.1</ele>
        <time>2014-09-24T11:44:26Z</time>
      </trkpt>
      <trkpt lat="45.061350" lon="6.523985">
        <ele>2064.6</ele>
        <time>2014-09-24T11:44:33Z</time>
      </trkpt>
      <trkpt lat="45.061212" lon="6.524128">
        <ele>2063.4</ele>
        <time>2014-09-24T11:44:46Z</time>
      </trkpt>
      <trkpt lat="45.061138" lon="6.524178">
        <ele>2061.8</ele>
        <time>2014-09-24T11:44:52Z</time>
      </trkpt>
      <trkpt lat="45.060837" lon="6.524357">
        <ele>2053.1</ele>
        <time>2014-09-24T11:45:16Z</time>
      </trkpt>
      <trkpt lat="45.060688" lon="6.524478">
        <ele>2051.3</ele>
        <time>2014-09-24T11:45:30Z</time>
      </trkpt>
      <trkpt lat="45.060587" lon="6.524665">
        <ele>2050.8</ele>
        <time>2014-09-24T11:45:43Z</time>
      </trkpt>
      <trkpt lat="45.060433" lon="6.524763">
        <ele>2048.1</ele>
        <time>2014-09-24T11:45:55Z</time>
      </trkpt>
      <trkpt lat="45.060277" lon="6.524825">
        <ele>2045.1</ele>
        <time>2014-09-24T11:46:07Z</time>
      </trkpt>
      <trkpt lat="45.060042" lon="6.524875">
        <ele>2040.1</ele>
        <time>2014-09-24T11:46:28Z</time>
      </trkpt>
      <trkpt lat="45.059922" lon="6.524967">
        <ele>2038.7</ele>
        <time>2014-09-24T11:46:43Z</time>
      </trkpt>
      <trkpt lat="45.059843" lon="6.525152">
        <ele>2038.1</ele>
        <time>2014-09-24T11:46:55Z</time>
      </trkpt>
      <trkpt lat="45.059713" lon="6.525305">
        <ele>2036.5</ele>
        <time>2014-09-24T11:47:08Z</time>
      </trkpt>
      <trkpt lat="45.059558" lon="6.525390">
        <ele>2034.4</ele>
        <time>2014-09-24T11:47:21Z</time>
      </trkpt>
      <trkpt lat="45.059480" lon="6.525443">
        <ele>2033.4</ele>
        <time>2014-09-24T11:47:27Z</time>
      </trkpt>
      <trkpt lat="45.059340" lon="6.525578">
        <ele>2031.4</ele>
        <time>2014-09-24T11:47:39Z</time>
      </trkpt>
      <trkpt lat="45.059203" lon="6.525693">
        <ele>2029.5</ele>
        <time>2014-09-24T11:47:51Z</time>
      </trkpt>
      <trkpt lat="45.059063" lon="6.525993">
        <ele>2028.2</ele>
        <time>2014-09-24T11:48:09Z</time>
      </trkpt>
      <trkpt lat="45.058978" lon="6.525978">
        <ele>2027.6</ele>
        <time>2014-09-24T11:49:03Z</time>
      </trkpt>
      <trkpt lat="45.058982" lon="6.525955">
        <ele>2027.6</ele>
        <time>2014-09-24T11:50:14Z</time>
      </trkpt>
    </trkseg>
  </trk>
</gpx>
